TimeMST,TemperatureF,Dew PointF,Humidity,Sea Level PressureIn,VisibilityMPH,Wind Direction,Wind SpeedMPH,Gust SpeedMPH,PrecipitationIn,Events,Conditions,WindDirDegrees,DateUTC
12:15 AM,73.4,32.0,22,29.83,10.0,SSE,4.6,-,N/A,,Clear,150,2013-10-02 07:15:00
12:35 AM,73.4,32.0,22,29.83,10.0,SSE,4.6,-,N/A,,Clear,150,2013-10-02 07:35:00
12:55 AM,73.4,32.0,22,29.83,10.0,Calm,Calm,-,N/A,,Clear,0,2013-10-02 07:55:00
1:15 AM,71.6,32.0,23,29.83,10.0,Calm,Calm,-,N/A,,Clear,0,2013-10-02 08:15:00
1:35 AM,71.6,33.8,25,29.83,10.0,SE,5.8,-,N/A,,Clear,130,2013-10-02 08:35:00
1:55 AM,71.6,33.8,25,29.84,10.0,SSE,8.1,-,N/A,,Clear,150,2013-10-02 08:55:00
2:15 AM,73.4,32.0,22,29.83,10.0,South,5.8,-,N/A,,Clear,170,2013-10-02 09:15:00
2:35 AM,69.8,33.8,27,29.83,10.0,Calm,Calm,-,N/A,,Clear,0,2013-10-02 09:35:00
2:55 AM,69.8,33.8,27,29.83,10.0,Calm,Calm,-,N/A,,Clear,0,2013-10-02 09:55:00
3:15 AM,69.8,35.6,28,29.83,10.0,SE,4.6,-,N/A,,Clear,130,2013-10-02 10:15:00
3:35 AM,69.8,35.6,28,29.83,10.0,Calm,Calm,-,N/A,,Clear,0,2013-10-02 10:35:00
3:55 AM,69.8,35.6,28,29.83,10.0,ESE,5.8,-,N/A,,Clear,120,2013-10-02 10:55:00
4:15 AM,69.8,35.6,28,29.83,10.0,SE,8.1,-,N/A,,Clear,130,2013-10-02 11:15:00
4:35 AM,69.8,35.6,28,29.83,10.0,SE,5.8,-,N/A,,Clear,140,2013-10-02 11:35:00
4:55 AM,69.8,35.6,28,29.84,10.0,Calm,Calm,-,N/A,,Clear,0,2013-10-02 11:55:00
5:15 AM,68.0,37.4,33,29.84,10.0,ESE,3.5,-,N/A,,Clear,110,2013-10-02 12:15:00
5:35 AM,68.0,37.4,33,29.84,10.0,ESE,4.6,-,N/A,,Clear,120,2013-10-02 12:35:00
5:55 AM,68.0,39.2,35,29.84,10.0,ESE,6.9,-,N/A,,Clear,120,2013-10-02 12:55:00
6:15 AM,68.0,37.4,33,29.85,10.0,Calm,Calm,-,N/A,,Clear,0,2013-10-02 13:15:00
6:35 AM,68.0,37.4,33,29.85,10.0,Calm,Calm,-,N/A,,Clear,0,2013-10-02 13:35:00
6:55 AM,68.0,39.2,35,29.86,10.0,Calm,Calm,-,N/A,,Clear,0,2013-10-02 13:55:00
7:15 AM,68.0,39.2,35,29.86,10.0,Calm,Calm,-,N/A,,Clear,0,2013-10-02 14:15:00
7:35 AM,68.0,39.2,35,29.87,10.0,Calm,Calm,-,N/A,,Clear,0,2013-10-02 14:35:00
7:55 AM,68.0,39.2,35,29.87,10.0,Calm,Calm,-,N/A,,Clear,0,2013-10-02 14:55:00
8:15 AM,69.8,39.2,33,29.88,10.0,Calm,Calm,-,N/A,,Clear,0,2013-10-02 15:15:00
8:35 AM,71.6,39.2,31,29.88,10.0,Calm,Calm,-,N/A,,Clear,0,2013-10-02 15:35:00
8:55 AM,73.4,41.0,31,29.89,10.0,Calm,Calm,-,N/A,,Clear,0,2013-10-02 15:55:00
9:15 AM,75.2,41.0,29,29.89,10.0,South,4.6,-,N/A,,Clear,180,2013-10-02 16:15:00
9:35 AM,77.0,41.0,28,29.89,10.0,SSW,5.8,-,N/A,,Clear,200,2013-10-02 16:35:00
9:55 AM,77.0,41.0,28,29.89,10.0,SW,3.5,-,N/A,,Clear,230,2013-10-02 16:55:00
10:15 AM,80.6,41.0,24,29.88,10.0,SW,11.5,16.1,N/A,,Clear,220,2013-10-02 17:15:00
10:35 AM,82.4,41.0,23,29.87,10.0,SW,10.4,-,N/A,,Clear,230,2013-10-02 17:35:00
10:55 AM,82.4,41.0,23,29.87,10.0,SW,12.7,-,N/A,,Clear,220,2013-10-02 17:55:00
11:15 AM,84.2,41.0,22,29.86,10.0,SW,11.5,-,N/A,,Clear,220,2013-10-02 18:15:00
11:35 AM,86.0,41.0,20,29.86,10.0,SW,13.8,17.3,N/A,,Clear,220,2013-10-02 18:35:00
11:55 AM,89.6,33.8,14,29.85,10.0,South,17.3,26.5,N/A,,Clear,190,2013-10-02 18:55:00
12:15 PM,87.8,35.6,16,29.84,10.0,SSE,20.7,25.3,N/A,,Clear,150,2013-10-02 19:15:00
12:35 PM,89.6,35.6,15,29.84,10.0,South,13.8,20.7,N/A,,Clear,180,2013-10-02 19:35:00
12:55 PM,89.6,35.6,15,29.83,10.0,ENE,10.4,23.0,N/A,,Clear,70,2013-10-02 19:55:00
1:15 PM,91.4,33.8,13,29.81,10.0,ENE,16.1,25.3,N/A,,Clear,70,2013-10-02 20:15:00
1:35 PM,89.6,33.8,14,29.79,10.0,South,20.7,25.3,N/A,,Clear,180,2013-10-02 20:35:00
1:55 PM,91.4,33.8,13,29.79,10.0,SSW,15.0,26.5,N/A,,Clear,200,2013-10-02 20:55:00
2:15 PM,91.4,33.8,13,29.77,10.0,SSW,16.1,24.2,N/A,,Clear,200,2013-10-02 21:15:00
2:35 PM,91.4,33.8,13,29.76,10.0,South,18.4,21.9,N/A,,Clear,170,2013-10-02 21:35:00
2:55 PM,91.4,32.0,12,29.76,10.0,SSW,16.1,-,N/A,,Clear,200,2013-10-02 21:55:00
3:15 PM,91.4,32.0,12,29.75,10.0,South,16.1,-,N/A,,Clear,190,2013-10-02 22:15:00
3:35 PM,91.4,32.0,12,29.75,10.0,South,18.4,-,N/A,,Clear,180,2013-10-02 22:35:00
3:55 PM,91.4,33.8,13,29.74,10.0,South,18.4,21.9,N/A,,Clear,190,2013-10-02 22:55:00
4:15 PM,91.4,33.8,13,29.73,10.0,South,16.1,23.0,N/A,,Clear,180,2013-10-02 23:15:00
4:35 PM,91.4,33.8,13,29.73,10.0,South,13.8,23.0,N/A,,Clear,170,2013-10-02 23:35:00
4:55 PM,91.4,35.6,14,29.72,10.0,South,17.3,-,N/A,,Clear,170,2013-10-02 23:55:00
5:15 PM,91.4,35.6,14,29.72,10.0,SSE,20.7,24.2,N/A,,Clear,160,2013-10-03 00:15:00
5:35 PM,91.4,35.6,14,29.72,10.0,SSE,18.4,27.6,N/A,,Clear,160,2013-10-03 00:35:00
5:55 PM,89.6,37.4,16,29.71,10.0,South,19.6,-,N/A,,Clear,170,2013-10-03 00:55:00
6:15 PM,89.6,37.4,16,29.71,10.0,SSE,19.6,23.0,N/A,,Clear,150,2013-10-03 01:15:00
6:35 PM,89.6,35.6,15,29.71,10.0,SSE,17.3,-,N/A,,Clear,150,2013-10-03 01:35:00
6:55 PM,87.8,35.6,16,29.72,10.0,SSE,16.1,-,N/A,,Clear,150,2013-10-03 01:55:00
7:15 PM,87.8,35.6,16,29.72,10.0,SE,15.0,-,N/A,,Clear,140,2013-10-03 02:15:00
7:35 PM,86.0,35.6,17,29.73,10.0,SSE,13.8,-,N/A,,Clear,150,2013-10-03 02:35:00
7:55 PM,86.0,35.6,17,29.73,10.0,SSE,16.1,-,N/A,,Clear,150,2013-10-03 02:55:00
8:15 PM,86.0,35.6,17,29.73,10.0,SSE,15.0,-,N/A,,Clear,160,2013-10-03 03:15:00
8:35 PM,86.0,33.8,15,29.74,10.0,South,11.5,-,N/A,,Clear,170,2013-10-03 03:35:00
8:55 PM,84.2,37.4,19,29.74,10.0,SSW,9.2,-,N/A,,Clear,200,2013-10-03 03:55:00
9:15 PM,82.4,39.2,21,29.74,10.0,SSW,9.2,-,N/A,,Clear,200,2013-10-03 04:15:00
9:35 PM,82.4,41.0,23,29.74,10.0,SSW,6.9,-,N/A,,Clear,200,2013-10-03 04:35:00
9:55 PM,80.6,41.0,24,29.74,10.0,SSW,5.8,-,N/A,,Clear,200,2013-10-03 04:55:00
10:15 PM,78.8,42.8,28,29.74,10.0,SW,4.6,-,N/A,,Clear,230,2013-10-03 05:15:00
10:35 PM,77.0,42.8,29,29.74,10.0,SSW,6.9,-,N/A,,Clear,200,2013-10-03 05:35:00
10:55 PM,77.0,44.6,32,29.74,10.0,SW,3.5,-,N/A,,Clear,220,2013-10-03 05:55:00
11:15 PM,75.2,44.6,34,29.75,10.0,WSW,3.5,-,N/A,,Clear,240,2013-10-03 06:15:00
11:35 PM,75.2,44.6,34,29.74,10.0,Calm,Calm,-,N/A,,Clear,0,2013-10-03 06:35:00
11:55 PM,75.2,44.6,34,29.74,10.0,WSW,3.5,-,N/A,,Clear,250,2013-10-03 06:55:00